createdAt,value
2023-04-02T00:01:38.528Z,15.39
2023-04-02T00:04:14.887Z,15.35
2023-04-02T00:06:46.627Z,15.29
2023-04-02T00:09:14.539Z,15.29
2023-04-02T00:11:48.838Z,15.05
2023-04-02T00:14:29.469Z,15.09
2023-04-02T00:17:00.360Z,14.76
2023-04-02T00:19:47.853Z,14.75
2023-04-02T00:22:27.442Z,14.82
2023-04-02T00:24:58.004Z,14.77
2023-04-02T00:27:25.970Z,14.79
2023-04-02T00:29:56.427Z,15.02
2023-04-02T00:32:31.335Z,15.12
2023-04-02T00:35:00.220Z,15.15
2023-04-02T00:37:39.229Z,15.07
2023-04-02T00:40:20.101Z,15.23
2023-04-02T00:42:50.173Z,15.20
2023-04-02T00:45:25.412Z,15.12
2023-04-02T00:47:53.362Z,15.41
2023-04-02T00:50:29.118Z,15.34
2023-04-02T00:53:00.184Z,15.28
2023-04-02T00:55:37.068Z,15.30
2023-04-02T00:58:17.575Z,15.44
2023-04-02T01:00:50.784Z,15.35
2023-04-02T01:03:19.561Z,15.45
2023-04-02T01:05:50.616Z,15.55
2023-04-02T01:08:27.709Z,15.53
2023-04-02T01:11:04.803Z,15.47
2023-04-02T01:13:35.738Z,15.32
2023-04-02T01:16:17.068Z,15.19
2023-04-02T01:19:18.490Z,15.24
2023-04-02T01:22:03.246Z,15.28
2023-04-02T01:24:34.080Z,15.11
2023-04-02T01:27:05.707Z,15.14
2023-04-02T01:29:40.331Z,15.28
2023-04-02T01:32:13.959Z,15.30
2023-04-02T01:34:46.119Z,15.20
2023-04-02T01:37:32.816Z,14.99
2023-04-02T01:40:31.150Z,14.77
2023-04-02T01:43:11.072Z,14.69
2023-04-02T01:45:39.585Z,14.56
2023-04-02T01:48:18.115Z,14.49
2023-04-02T01:50:49.987Z,14.34
2023-04-02T01:53:21.807Z,14.38
2023-04-02T01:56:01.800Z,14.39
2023-04-02T01:58:32.566Z,14.34
2023-04-02T02:01:17.488Z,14.42
2023-04-02T02:03:46.173Z,14.43
2023-04-02T02:06:16.885Z,14.51
2023-04-02T02:08:54.357Z,14.50
2023-04-02T02:11:26.435Z,14.60
2023-04-02T02:13:58.402Z,14.60
2023-04-02T02:16:28.460Z,14.94
2023-04-02T02:19:05.066Z,14.81
2023-04-02T02:21:43.503Z,14.79
2023-04-02T02:24:32.422Z,14.88
2023-04-02T02:27:18.847Z,14.93
2023-04-02T02:29:56.978Z,14.79
2023-04-02T02:32:29.637Z,14.66
2023-04-02T02:35:20.178Z,14.69
2023-04-02T02:37:57.742Z,14.56
2023-04-02T02:40:37.042Z,14.36
2023-04-02T02:43:10.571Z,14.22
2023-04-02T02:45:41.278Z,14.10
2023-04-02T02:48:15.651Z,14.00
2023-04-02T02:50:44.966Z,13.88
2023-04-02T02:53:22.676Z,13.96
2023-04-02T02:55:57.221Z,13.94
2023-04-02T02:58:32.107Z,13.88
2023-04-02T03:01:23.329Z,13.87
2023-04-02T03:03:55.531Z,13.58
2023-04-02T03:06:25.548Z,13.66
2023-04-02T03:09:07.135Z,13.74
2023-04-02T03:11:46.892Z,13.78
2023-04-02T03:14:46.854Z,13.82
2023-04-02T03:17:25.671Z,13.78
2023-04-02T03:20:14.915Z,13.88
2023-04-02T03:22:49.584Z,13.82
2023-04-02T03:25:37.658Z,13.80
2023-04-02T03:28:13.485Z,13.85
2023-04-02T03:30:58.205Z,13.97
2023-04-02T03:33:35.168Z,14.06
2023-04-02T03:36:20.331Z,14.00
2023-04-02T03:39:01.553Z,13.91
2023-04-02T03:41:38.307Z,13.96
2023-04-02T03:44:19.658Z,14.00
2023-04-02T03:46:57.641Z,14.05
2023-04-02T03:49:37.042Z,14.00
2023-04-02T03:52:14.636Z,14.06
2023-04-02T03:54:54.226Z,14.16
2023-04-02T03:57:38.872Z,13.97
2023-04-02T04:00:20.496Z,14.09
2023-04-02T04:02:59.413Z,14.14
2023-04-02T04:05:32.511Z,13.92
2023-04-02T04:08:14.106Z,13.87
2023-04-02T04:10:43.593Z,13.84
2023-04-02T04:13:21.104Z,13.86
2023-04-02T04:15:58.516Z,13.96
2023-04-02T04:18:35.189Z,13.98
2023-04-02T04:21:37.569Z,13.89
2023-04-02T04:24:22.834Z,13.75
2023-04-02T04:27:13.364Z,13.63
2023-04-02T04:30:04.448Z,13.60
2023-04-02T04:32:39.406Z,13.70
2023-04-02T04:35:35.575Z,13.63
2023-04-02T04:38:12.268Z,13.52
2023-04-02T04:40:52.726Z,13.43
2023-04-02T04:43:44.134Z,13.37
2023-04-02T04:46:28.405Z,13.09
2023-04-02T04:49:14.349Z,13.02
2023-04-02T04:51:48.506Z,13.04
2023-04-02T04:54:17.358Z,13.05
2023-04-02T04:56:51.933Z,13.00
2023-04-02T04:59:36.626Z,13.09
2023-04-02T05:02:17.667Z,13.01
2023-04-02T05:04:51.902Z,13.10
2023-04-02T05:07:31.911Z,12.99
2023-04-02T05:10:17.484Z,13.20
2023-04-02T05:12:59.457Z,13.03
2023-04-02T05:15:42.448Z,13.18
2023-04-02T05:18:22.487Z,13.08
2023-04-02T05:21:04.194Z,13.13
2023-04-02T05:23:40.648Z,13.14
2023-04-02T05:26:25.020Z,13.19
2023-04-02T05:29:01.250Z,13.30
2023-04-02T05:32:02.055Z,13.32
2023-04-02T05:34:35.583Z,13.15
2023-04-02T05:37:09.350Z,13.07
2023-04-02T05:39:37.447Z,13.07
2023-04-02T05:42:08.791Z,13.00
2023-04-02T05:45:34.911Z,12.80
2023-04-02T05:48:17.332Z,12.87
2023-04-02T05:50:49.811Z,12.65
2023-04-02T05:53:33.803Z,12.71
2023-04-02T05:56:11.685Z,12.68
2023-04-02T05:58:52.703Z,12.50
2023-04-02T06:01:45.922Z,12.46
2023-04-02T06:04:36.420Z,12.71
2023-04-02T06:07:11.496Z,12.65
2023-04-02T06:10:00.928Z,12.72
2023-04-02T06:12:49.767Z,12.83
2023-04-02T06:15:23.766Z,12.93
2023-04-02T06:17:59.471Z,13.11
2023-04-02T06:20:28.443Z,12.98
2023-04-02T06:23:14.398Z,13.01
2023-04-02T06:25:49.808Z,13.05
2023-04-02T06:28:26.537Z,13.17
2023-04-02T06:31:01.260Z,13.02
2023-04-02T06:33:35.766Z,13.17
2023-04-02T06:36:05.296Z,13.35
2023-04-02T06:41:21.518Z,13.58
2023-04-02T06:44:20.373Z,13.73
2023-04-02T06:47:00.263Z,13.83
2023-04-02T06:49:51.590Z,13.85
2023-04-02T06:52:51.297Z,13.96
2023-04-02T06:55:49.143Z,14.13
2023-04-02T06:58:22.055Z,14.21
2023-04-02T07:00:52.167Z,14.15
2023-04-02T07:03:31.808Z,14.06
2023-04-02T07:06:06.001Z,14.02
2023-04-02T07:08:35.612Z,13.98
2023-04-02T07:11:03.483Z,13.94
2023-04-02T07:13:31.549Z,13.94
2023-04-02T07:15:59.512Z,13.99
2023-04-02T07:18:55.647Z,14.05
2023-04-02T07:21:24.394Z,14.18
2023-04-02T07:23:53.013Z,14.17
2023-04-02T07:26:25.833Z,14.20
2023-04-02T07:28:57.232Z,14.29
2023-04-02T07:31:28.506Z,14.22
2023-04-02T07:34:00.325Z,14.37
2023-04-02T07:36:29.878Z,14.44
2023-04-02T07:38:58.283Z,14.46
2023-04-02T07:41:27.793Z,14.26
2023-04-02T07:43:55.661Z,14.39
2023-04-02T07:46:23.612Z,14.42
2023-04-02T07:48:51.658Z,14.36
2023-04-02T07:51:23.257Z,14.44
2023-04-02T07:53:56.160Z,14.50
2023-04-02T07:56:25.458Z,14.64
2023-04-02T07:58:53.197Z,14.57
2023-04-02T08:01:26.710Z,14.61
2023-04-02T08:03:56.013Z,14.69
2023-04-02T08:06:24.808Z,14.51
2023-04-02T08:08:52.865Z,14.47
2023-04-02T08:11:21.059Z,14.59
2023-04-02T08:13:49.019Z,14.64
2023-04-02T08:16:17.118Z,14.70
2023-04-02T08:18:47.970Z,14.84
2023-04-02T08:21:16.651Z,14.80
2023-04-02T08:23:45.205Z,14.76
2023-04-02T08:26:18.753Z,14.84
2023-04-02T08:28:46.836Z,14.74
2023-04-02T08:31:14.840Z,14.89
2023-04-02T08:33:42.893Z,14.97
2023-04-02T08:36:18.214Z,14.90
2023-04-02T08:38:47.116Z,14.88
2023-04-02T08:41:28.052Z,14.97
2023-04-02T08:44:32.465Z,15.15
2023-04-02T08:47:06.519Z,14.99
2023-04-02T08:49:43.235Z,14.96
2023-04-02T08:52:26.867Z,14.84
2023-04-02T08:54:56.769Z,14.62
2023-04-02T08:57:27.740Z,14.63
2023-04-02T09:00:07.905Z,14.52
2023-04-02T09:02:46.230Z,14.25
2023-04-02T09:05:23.305Z,14.05
2023-04-02T09:07:52.854Z,14.15
2023-04-02T09:10:23.282Z,14.27
2023-04-02T09:12:53.521Z,14.26
2023-04-02T09:15:41.714Z,14.32
2023-04-02T09:18:16.969Z,14.37
2023-04-02T09:20:46.227Z,14.50
2023-04-02T09:23:24.038Z,14.47
2023-04-02T09:26:03.592Z,14.52
2023-04-02T09:28:32.531Z,14.59
2023-04-02T09:31:18.328Z,14.77
2023-04-02T09:33:50.488Z,14.80
2023-04-02T09:36:33.661Z,14.73
2023-04-02T09:39:23.369Z,14.77
2023-04-02T09:42:02.793Z,15.08
2023-04-02T09:44:34.318Z,15.12
2023-04-02T09:47:05.581Z,15.46
2023-04-02T09:49:36.953Z,15.43
2023-04-02T09:52:41.870Z,15.55
2023-04-02T09:55:18.598Z,15.50
2023-04-02T09:57:48.332Z,15.56
2023-04-02T10:00:32.068Z,15.59
2023-04-02T10:03:30.299Z,15.81
2023-04-02T10:06:13.263Z,15.70
2023-04-02T10:08:44.391Z,15.70
2023-04-02T10:11:46.400Z,15.72
2023-04-02T10:14:22.075Z,15.75
2023-04-02T10:16:58.261Z,15.82
2023-04-02T10:19:34.587Z,15.84
2023-04-02T10:22:09.586Z,16.20
2023-04-02T10:24:37.576Z,16.34
2023-04-02T10:27:23.045Z,16.90
2023-04-02T10:30:09.729Z,17.63
2023-04-02T10:33:01.512Z,18.43
2023-04-02T10:36:12.241Z,19.10
2023-04-02T10:39:16.313Z,19.71
2023-04-02T10:41:48.899Z,20.18
2023-04-02T10:44:29.886Z,20.28
2023-04-02T10:47:19.076Z,20.34
2023-04-02T10:50:14.460Z,20.58
2023-04-02T10:53:06.389Z,20.62
2023-04-02T10:55:41.079Z,20.73
2023-04-02T10:58:24.526Z,20.63
2023-04-02T11:01:02.177Z,21.26
2023-04-02T11:03:42.307Z,21.67
2023-04-02T11:06:22.826Z,22.18
2023-04-02T11:08:54.126Z,22.36
2023-04-02T11:11:26.992Z,22.71
2023-04-02T11:14:12.956Z,22.67
2023-04-02T11:16:44.635Z,22.95
2023-04-02T11:19:18.891Z,22.85
2023-04-02T11:22:11.086Z,23.31
2023-04-02T11:24:53.813Z,22.89
2023-04-02T11:27:34.078Z,22.38
2023-04-02T11:30:18.806Z,22.28
2023-04-02T11:32:49.875Z,22.00
2023-04-02T11:35:32.341Z,22.08
2023-04-02T11:38:24.121Z,21.91
2023-04-02T11:40:59.537Z,21.54
2023-04-02T11:43:33.534Z,21.62
2023-04-02T11:46:16.818Z,20.76
2023-04-02T11:48:44.687Z,19.80
2023-04-02T11:51:36.297Z,18.91
2023-04-02T11:54:05.136Z,18.68
2023-04-02T11:56:41.176Z,18.55
2023-04-02T11:59:33.625Z,18.04
2023-04-02T12:02:07.429Z,16.81
2023-04-02T12:05:07.733Z,16.02
2023-04-02T12:08:06.063Z,15.85
2023-04-02T12:11:03.914Z,15.88
2023-04-02T12:13:41.367Z,15.79
2023-04-02T12:16:12.336Z,15.85
2023-04-02T12:18:48.824Z,15.96
2023-04-02T12:21:18.547Z,16.11
2023-04-02T12:23:48.637Z,16.02
2023-04-02T12:26:43.126Z,15.99
2023-04-02T12:29:28.694Z,16.00
2023-04-02T12:31:59.135Z,15.99
2023-04-02T12:34:30.315Z,15.95
2023-04-02T12:37:03.341Z,16.11
2023-04-02T12:39:35.242Z,16.31
2023-04-02T12:42:03.143Z,16.40
2023-04-02T12:44:31.511Z,16.61
2023-04-02T12:46:59.681Z,17.18
2023-04-02T12:49:44.449Z,17.73
2023-04-02T12:52:15.571Z,18.51
2023-04-02T12:54:50.649Z,19.56
2023-04-02T12:57:25.573Z,20.54
2023-04-02T12:59:55.756Z,21.29
2023-04-02T13:02:26.512Z,22.16
2023-04-02T13:04:57.615Z,22.80
2023-04-02T13:10:25.843Z,24.39
2023-04-02T13:13:02.182Z,24.98
2023-04-02T13:15:33.321Z,25.46
2023-04-02T13:18:13.359Z,26.11
2023-04-02T13:20:43.618Z,26.67
2023-04-02T13:23:29.892Z,27.01
2023-04-02T13:26:00.130Z,27.17
2023-04-02T13:28:29.370Z,28.18
2023-04-02T13:30:58.149Z,29.04
2023-04-02T13:33:27.674Z,29.88
2023-04-02T13:35:55.783Z,30.08
2023-04-02T13:38:24.473Z,30.84
2023-04-02T13:40:52.533Z,31.83
2023-04-02T13:43:21.129Z,32.45
2023-04-02T13:45:55.688Z,32.69
2023-04-02T13:48:26.376Z,32.13
2023-04-02T13:50:54.353Z,32.97
2023-04-02T13:53:29.731Z,32.24
2023-04-02T13:55:57.750Z,33.43
2023-04-02T13:58:25.828Z,31.91
2023-04-02T14:00:55.075Z,32.10
2023-04-02T14:03:24.214Z,31.42
2023-04-02T14:06:25.553Z,31.18
2023-04-02T14:09:28.514Z,30.31
2023-04-02T14:12:12.804Z,30.19
2023-04-02T14:14:48.420Z,29.65
2023-04-02T14:17:29.866Z,30.00
2023-04-02T14:20:23.279Z,29.26
2023-04-02T14:23:06.544Z,28.88
2023-04-02T14:25:55.598Z,29.18
2023-04-02T14:28:43.070Z,28.77
2023-04-02T14:31:48.882Z,28.45
2023-04-02T14:34:16.690Z,27.70
2023-04-02T14:36:56.625Z,27.19
2023-04-02T14:39:50.994Z,26.34
2023-04-02T14:42:27.519Z,25.45
2023-04-02T14:45:12.271Z,25.07
2023-04-02T14:47:45.572Z,24.54
2023-04-02T14:50:28.163Z,24.82
2023-04-02T14:53:02.037Z,25.04
2023-04-02T14:55:35.241Z,24.68
2023-04-02T14:58:09.440Z,23.99
2023-04-02T15:00:50.132Z,23.86
2023-04-02T15:03:26.807Z,23.55
2023-04-02T15:06:10.877Z,23.43
2023-04-02T15:09:09.683Z,23.54
2023-04-02T15:11:42.558Z,23.31
2023-04-02T15:14:11.340Z,23.02
2023-04-02T15:16:48.702Z,23.26
2023-04-02T15:19:18.605Z,23.42
2023-04-02T15:22:13.480Z,23.47
2023-04-02T15:24:42.890Z,23.54
2023-04-02T15:27:38.877Z,23.36
2023-04-02T15:30:15.006Z,23.28
2023-04-02T15:32:47.259Z,22.93
2023-04-02T15:35:43.862Z,22.43
2023-04-02T15:38:17.417Z,22.32
2023-04-02T15:41:06.731Z,21.98
2023-04-02T15:43:55.078Z,22.07
2023-04-02T15:46:39.367Z,21.73
2023-04-02T15:49:29.740Z,21.68
2023-04-02T15:52:15.145Z,21.56
2023-04-02T15:54:42.978Z,21.79
2023-04-02T15:57:34.336Z,21.85
2023-04-02T16:00:15.553Z,21.74
2023-04-02T16:02:59.220Z,21.44
2023-04-02T16:05:53.770Z,21.66
2023-04-02T16:08:40.340Z,21.52
2023-04-02T16:11:13.515Z,21.30
2023-04-02T16:13:43.152Z,21.41
2023-04-02T16:16:31.382Z,21.48
2023-04-02T16:19:45.481Z,21.29
2023-04-02T16:22:24.959Z,20.98
2023-04-02T16:25:19.709Z,20.91
2023-04-02T16:27:54.658Z,20.60
2023-04-02T16:30:36.570Z,20.63
2023-04-02T16:33:33.318Z,20.63
2023-04-02T16:36:05.623Z,20.68
2023-04-02T16:39:10.968Z,20.36
2023-04-02T16:42:19.333Z,20.23
2023-04-02T16:44:59.357Z,20.22
2023-04-02T16:47:50.492Z,20.18
2023-04-02T16:51:02.572Z,20.33
2023-04-02T16:53:30.500Z,20.29
2023-04-02T16:56:41.559Z,20.22
2023-04-02T16:59:18.489Z,20.31
2023-04-02T17:02:35.569Z,20.16
2023-04-02T17:05:31.559Z,19.90
2023-04-02T17:08:21.581Z,19.88
2023-04-02T17:11:00.357Z,19.73
2023-04-02T17:13:47.367Z,19.62
2023-04-02T17:16:22.109Z,19.67
2023-04-02T17:18:55.687Z,19.68
2023-04-02T17:21:30.271Z,19.55
2023-04-02T17:24:18.061Z,19.45
2023-04-02T17:26:53.126Z,19.41
2023-04-02T17:29:27.447Z,19.38
2023-04-02T17:32:01.386Z,19.27
2023-04-02T17:34:30.046Z,19.18
2023-04-02T17:37:21.866Z,19.13
2023-04-02T17:40:09.450Z,19.02
2023-04-02T17:43:10.723Z,19.03
2023-04-02T17:45:53.528Z,18.91
2023-04-02T17:48:32.489Z,18.78
2023-04-02T17:51:18.179Z,18.59
2023-04-02T17:54:25.923Z,18.56
2023-04-02T17:57:08.595Z,18.55
2023-04-02T18:00:21.002Z,18.34
2023-04-02T18:03:21.687Z,18.06
2023-04-02T18:06:01.135Z,17.81
2023-04-02T18:08:50.589Z,17.41
2023-04-02T18:11:39.865Z,17.13
2023-04-02T18:14:38.371Z,16.79
2023-04-02T18:17:35.333Z,16.62
2023-04-02T18:20:28.067Z,16.43
2023-04-02T18:23:12.570Z,16.30
2023-04-02T18:25:55.504Z,16.24
2023-04-02T18:28:44.936Z,16.09
2023-04-02T18:31:42.541Z,16.03
2023-04-02T18:34:40.119Z,16.07
2023-04-02T18:37:15.217Z,15.82
2023-04-02T18:40:01.385Z,16.00
2023-04-02T18:42:40.277Z,16.09
2023-04-02T18:45:30.075Z,15.95
2023-04-02T18:48:34.678Z,16.10
2023-04-02T18:51:05.841Z,16.15
2023-04-02T18:53:42.668Z,16.10
2023-04-02T18:56:16.544Z,16.02
2023-04-02T18:59:00.424Z,16.04
2023-04-02T19:01:53.485Z,16.09
2023-04-02T19:04:30.988Z,15.88
2023-04-02T19:07:11.414Z,15.80
2023-04-02T19:09:44.837Z,15.81
2023-04-02T19:12:22.403Z,15.91
2023-04-02T19:14:51.956Z,15.88
2023-04-02T19:18:07.446Z,15.81
2023-04-02T19:20:58.836Z,15.84
2023-04-02T19:26:25.165Z,15.90
2023-04-02T19:29:17.199Z,16.16
2023-04-02T19:31:51.360Z,16.16
2023-04-02T19:34:40.187Z,16.31
2023-04-02T19:37:28.970Z,16.10
2023-04-02T19:40:08.170Z,15.99
2023-04-02T19:42:48.486Z,16.08
2023-04-02T19:45:28.871Z,16.23
2023-04-02T19:48:00.886Z,16.22
2023-04-02T19:50:30.115Z,16.08
2023-04-02T19:53:03.082Z,15.99
2023-04-02T19:55:32.029Z,15.95
2023-04-02T19:58:17.358Z,16.09
2023-04-02T20:00:50.380Z,15.89
2023-04-02T20:03:18.398Z,15.98
2023-04-02T20:05:48.193Z,16.07
2023-04-02T20:08:17.035Z,16.00
2023-04-02T20:10:45.918Z,15.86
2023-04-02T20:13:14.150Z,15.78
2023-04-02T20:15:42.067Z,16.01
2023-04-02T20:18:12.210Z,16.02
2023-04-02T20:20:40.571Z,16.20
2023-04-02T20:23:16.426Z,16.18
2023-04-02T20:25:46.549Z,16.05
2023-04-02T20:28:16.701Z,16.05
2023-04-02T20:30:44.865Z,15.99
2023-04-02T20:33:14.986Z,15.76
2023-04-02T20:35:47.364Z,15.66
2023-04-02T20:38:16.637Z,15.69
2023-04-02T20:40:46.582Z,15.53
2023-04-02T20:43:29.823Z,15.47
2023-04-02T20:46:01.156Z,15.34
2023-04-02T20:48:32.891Z,15.44
2023-04-02T20:51:03.354Z,15.41
2023-04-02T20:53:33.093Z,15.48
2023-04-02T20:56:09.273Z,15.21
2023-04-02T20:58:38.363Z,15.46
2023-04-02T21:01:11.114Z,15.44
2023-04-02T21:03:40.218Z,15.39
2023-04-02T21:06:17.569Z,15.32
2023-04-02T21:08:49.425Z,15.45
2023-04-02T21:11:18.381Z,15.49
2023-04-02T21:13:46.543Z,15.45
2023-04-02T21:16:20.679Z,15.43
2023-04-02T21:18:51.772Z,15.49
2023-04-02T21:21:21.442Z,15.39
2023-04-02T21:23:55.610Z,15.47
2023-04-02T21:26:23.848Z,15.49
2023-04-02T21:28:51.783Z,15.63
2023-04-02T21:31:22.486Z,15.67
2023-04-02T21:33:53.412Z,15.62
2023-04-02T21:36:28.794Z,15.62
2023-04-02T21:39:06.704Z,15.60
2023-04-02T21:41:36.853Z,15.45
2023-04-02T21:44:08.596Z,15.41
2023-04-02T21:46:38.881Z,15.46
2023-04-02T21:49:10.217Z,15.34
2023-04-02T21:51:39.852Z,15.29
2023-04-02T21:54:08.334Z,15.24
2023-04-02T21:56:39.370Z,15.17
2023-04-02T21:59:09.825Z,15.13
2023-04-02T22:01:41.942Z,15.07
2023-04-02T22:04:12.336Z,15.10
2023-04-02T22:06:42.314Z,15.09
2023-04-02T22:09:15.629Z,14.87
2023-04-02T22:11:54.709Z,14.67
2023-04-02T22:17:08.658Z,14.57
2023-04-02T22:19:36.594Z,14.57
2023-04-02T22:22:04.403Z,14.70
2023-04-02T22:24:32.412Z,14.55
2023-04-02T22:27:00.405Z,14.59
2023-04-02T22:29:28.433Z,14.41
2023-04-02T22:32:14.666Z,14.48
2023-04-02T22:34:45.829Z,14.50
2023-04-02T22:37:13.753Z,14.46
2023-04-02T22:39:50.820Z,14.38
2023-04-02T22:42:18.673Z,14.49
2023-04-02T22:45:05.594Z,14.49
2023-04-02T22:47:33.397Z,14.39
2023-04-02T22:50:01.561Z,14.32
2023-04-02T22:55:16.049Z,14.11
2023-04-02T22:57:44.114Z,14.12
2023-04-02T23:00:16.073Z,14.09
2023-04-02T23:07:52.478Z,13.98
2023-04-02T23:10:20.649Z,13.89
2023-04-02T23:12:48.737Z,13.70
2023-04-02T23:15:17.460Z,13.69
2023-04-02T23:17:45.440Z,13.52
2023-04-02T23:20:13.461Z,13.45
2023-04-02T23:22:41.404Z,13.50
2023-04-02T23:25:09.408Z,13.46
2023-04-02T23:27:37.408Z,13.59
2023-04-02T23:30:06.687Z,13.60
2023-04-02T23:32:34.695Z,13.67
2023-04-02T23:35:02.585Z,13.74
2023-04-02T23:37:30.615Z,13.57
2023-04-02T23:39:58.569Z,13.62
2023-04-02T23:42:27.284Z,13.68
2023-04-02T23:44:56.546Z,13.62
2023-04-02T23:47:24.558Z,13.52
2023-04-02T23:49:52.561Z,13.57
2023-04-02T23:52:20.416Z,13.51
2023-04-02T23:54:48.418Z,13.51
2023-04-02T23:57:17.371Z,13.26
2023-04-02T23:59:45.348Z,13.46
